KPSPKNUC

Guest
Details From KPSP - Palm Springs Intl
To KNUC - San Clemente Island Nalf
Flight Number -
Tags generated
Created
Modified
Stats Distance 115 nm / 213 km
Max Altitude 7,200 ft / 2,195 m
Waypoints 3
Social Downloads 1
Likes 0
Share VATSIM

Download

Looking for another format? Having issues loading an existing format? Contact us
Advertisement - Login to hide

Notes

Basic altitude profile: - Ascent Rate: 2500ft/min - Ascent Speed: 250kts - Cruise Altitude: 35000ft - Cruise Speed: 420kts - Descent Rate: 1500ft/min - Descent Speed: 250kts Options: - Use NATs: yes - Use PACOTS: yes - Use low airways: yes - Use high airways: yes

Route

KPSP HEMET KNUC

ID Type Via Altitude Latitude Longitude Leg Dist Tot Dist Heading (true) Name
O KPSP APT - 0 ft / 0 m 33.82968˚ -116.50622˚ - 0 nm - Palm Springs Intl
HEMET FIX - 7,200 ft / 2,195 m 33.69049˚ -116.87905˚ 20 nm 20 nm 246° / 246° -
O KNUC APT - 0 ft / 0 m 33.02274˚ -118.58849˚ 94 nm 115 nm 245° / 244° San Clemente Island Nalf

Altitude Profile

Advertisement - Login to hide

KPSP

Details ICAO KPSP (PSP)
Name Palm Springs Intl
Region United States
Timezone America/Los_Angeles (UTC-7.0)
Stats Elevation 477 ft / 145 m (AMSL)
Location 33.829677° -116.506218°
Runways 2
Magnetic Variation 11.541° E

METAR

KPSP 251553Z 16004KT 10SM CLR 24/06 A2996 RMK AO2 SLP142 T02390061

Decode

TAF

TAF KPSP 251120Z 2512/2612 VRB05KT P6SM SKC FM251700 31012G22KT P6SM SKC FM252100 32020G30KT P6SM SKC FM260800 32012G20KT P6SM SKC

Decode

Departure Runways

ID Width Length Bearing (true) Bearing (mag) Surface Threshold Offset Overrun Length
13L 75 ft / 23 m 4,958 ft / 1,511 m 143.52° 131.98° Asphalt 0 ft / 0 m 151 ft / 46 m
13R 151 ft / 46 m 10,012 ft / 3,052 m 143.52° 131.98° Asphalt 2,999 ft / 914 m 200 ft / 61 m
31L 151 ft / 46 m 10,012 ft / 3,052 m 323.53° 311.99° Asphalt 1,499 ft / 457 m 200 ft / 61 m
31R 75 ft / 23 m 4,958 ft / 1,511 m 323.53° 311.99° Asphalt 0 ft / 0 m 151 ft / 46 m

KNUC

Details ICAO KNUC
Name San Clemente Island Nalf
Region United States
Timezone America/Los_Angeles (UTC-7.0)
Stats Elevation 182 ft / 55 m (AMSL)
Location 33.022745° -118.588487°
Runways 1
Magnetic Variation 11.823° E

METAR

KNUC 251556Z 33006KT 10SM FEW017 SCT050 16/12 A3015 RMK AO2 SLPNO T01610117 $

Decode

TAF

TAF KNUC 2515/2615 30010KT 9999 FEW020 BKN045 QNH3008INS TEMPO 2515/2521 9999 BKN020 BKN045 FM260300 30013KT 9999 SCT015 QNH3005INS TEMPO 2603/2609 30015G25KT BKN015 FM260900 30013KT 9999 BKN012 QNH3002INS TEMPO 260900 30015G25KT SCT012 T19/2522Z T13/2612Z FS30020

Decode

Destination Runways

ID Width Length Bearing (true) Bearing (mag) Surface Threshold Offset Overrun Length
05 200 ft / 61 m 9,290 ft / 2,832 m 67.19° 55.37° Concrete 0 ft / 0 m 0 ft / 0 m
23 200 ft / 61 m 9,290 ft / 2,832 m 247.20° 235.38° Concrete 0 ft / 0 m 0 ft / 0 m

Popular Alternatives